Time;durP1;ratioP1;P1;durP2;ratioP2;P2;SDS_P1;SDS_P2;PMS_P1;PMS_P2;Temp;Humidity;BMP_temperature;BMP_pressure;BME280_temperature;BME280_humidity;BME280_pressure;Samples;Min_cycle;Max_cycle;Signal;HPM_P1;HPM_P2
2023/06/27 00:01:21;;;;;;;;;;;;;;;;;;5034904;28;20288;-22
2023/06/27 00:03:51;;;;;;;;;;;;;;;;;;5034550;28;19927;-22
2023/06/27 00:06:19;;;;;;;;;;;;;;;;;;5034953;28;19913;-19
2023/06/27 00:08:45;;;;;;;;;;;;;;;;;;5034967;28;19920;-21
2023/06/27 00:11:11;;;;;;;;;;;;;;;;;;5034742;28;19913;-20
2023/06/27 00:13:40;;;;;;;;;;;;;;;;;;5034700;28;20015;-20
2023/06/27 00:16:06;;;;;;;;;;;;;;;;;;5034976;28;20307;-22
2023/06/27 00:18:34;;;;;;;;;;;;;;;;;;5034784;28;20012;-22
2023/06/27 00:21:01;;;;;;;;;;;;;;;;;;5034682;28;19990;-20
2023/06/27 00:23:33;;;;;;;;;;;;;;;;;;5034550;28;20340;-22
2023/06/27 00:25:59;;;;;;;;;;;;;;;;;;5034765;28;19983;-22
2023/06/27 00:28:24;;;;;;;;;;;;;;;;;;5034562;28;20011;-20
2023/06/27 00:30:50;;;;;;;;;;;;;;;;;;5034542;28;19952;-20
2023/06/27 00:33:16;;;;;;;;;;;;;;;;;;5034741;28;19909;-24
2023/06/27 00:35:42;;;;;;;;;;;;;;;;;;5034792;28;20308;-20
2023/06/27 00:38:08;;;;;;;;;;;;;;;;;;5034775;28;19944;-21
2023/06/27 00:40:34;;;;;;;;;;;;;;;;;;5034516;28;20251;-22
2023/06/27 00:43:00;;;;;;;;;;;;;;;;;;5034433;28;19909;-20
2023/06/27 00:45:26;;;;;;;;;;;;;;;;;;5034435;28;19920;-19
2023/06/27 00:47:53;;;;;;;;;;;;;;;;;;5034614;28;19924;-21
2023/06/27 00:50:19;;;;;;;;;;;;;;;;;;5034397;28;20023;-21
2023/06/27 00:52:44;;;;;;;;;;;;;;;;;;5034270;28;19941;-22
2023/06/27 00:55:10;;;;;;;;;;;;;;;;;;5034562;28;20225;-21
2023/06/27 00:57:36;;;;;;;;;;;;;;;;;;5034565;28;20332;-20
2023/06/27 01:00:03;;;;;;;;;;;;;;;;;;5034281;28;19909;-20
2023/06/27 01:02:28;;;;;;;;;;;;;;;;;;5034353;28;19960;-20
2023/06/27 01:04:54;;;;;;;;;;;;;;;;;;5034073;28;19967;-21
2023/06/27 01:07:22;;;;;;;;;;;;;;;;;;5034089;28;19913;-21
2023/06/27 01:09:48;;;;;;;;;;;;;;;;;;5034200;28;20008;-21
2023/06/27 01:12:14;;;;;;;;;;;;;;;;;;5034126;28;19963;-21
2023/06/27 01:14:40;;;;;;;;;;;;;;;;;;5034116;28;20283;-22
2023/06/27 01:17:06;;;;;;;;;;;;;;;;;;5016720;28;19909;-20
2023/06/27 01:19:32;;;;;;;;;;;;;;;;;;5034132;28;19909;-22
2023/06/27 01:21:58;;;;;;;;;;;;;;;;;;5016637;28;20259;-19
2023/06/27 01:24:24;;;;;;;;;;;;;;;;;;5034329;28;19909;-21
2023/06/27 01:26:51;;;;;;;;;;;;;;;;;;5034072;28;20031;-19
2023/06/27 01:29:17;;;;;;;;;;;;;;;;;;5034550;28;20348;-21
2023/06/27 01:31:42;;;;;;;;;;;;;;;;;;5037550;28;19913;-21
2023/06/27 01:34:08;;;;;;;;;;;;;;;;;;5037505;28;19909;-22
2023/06/27 01:36:34;;;;;;;;;;;;;;;;;;5019982;28;19909;-21
2023/06/27 01:39:00;;;;;;;;;;;;;;;;;;5037498;28;19909;-21
2023/06/27 01:41:26;;;;;;;;;;;;;;;;;;5037647;28;19909;-20
2023/06/27 01:43:52;;;;;;;;;;;;;;;;;;5037329;28;19909;-19
2023/06/27 01:46:18;;;;;;;;;;;;;;;;;;5037480;28;19913;-21
2023/06/27 01:48:44;;;;;;;;;;;;;;;;;;5019799;28;20225;-21
2023/06/27 01:51:10;;;;;;;;;;;;;;;;;;5037324;28;19915;-22
2023/06/27 01:53:36;;;;;;;;;;;;;;;;;;5037422;28;19909;-20
2023/06/27 01:56:02;;;;;;;;;;;;;;;;;;5037436;28;20241;-21
2023/06/27 01:58:28;;;;;;;;;;;;;;;;;;5037132;28;20233;-21
2023/06/27 02:00:54;;;;;;;;;;;;;;;;;;5037531;28;19909;-20
2023/06/27 02:03:20;;;;;;;;;;;;;;;;;;5036685;28;20019;-19
2023/06/27 02:05:46;;;;;;;;;;;;;;;;;;5037145;28;19909;-20
2023/06/27 02:08:12;;;;;;;;;;;;;;;;;;5036814;28;19920;-22
2023/06/27 02:10:38;;;;;;;;;;;;;;;;;;5036834;28;20248;-21
2023/06/27 02:13:04;;;;;;;;;;;;;;;;;;5036951;28;19909;-22
2023/06/27 02:15:30;;;;;;;;;;;;;;;;;;5036763;28;19909;-21
2023/06/27 02:17:56;;;;;;;;;;;;;;;;;;5019281;28;19964;-21
2023/06/27 02:20:22;;;;;;;;;;;;;;;;;;5019193;28;20004;-20
2023/06/27 02:22:47;;;;;;;;;;;;;;;;;;5036626;28;20233;-22
2023/06/27 02:25:13;;;;;;;;;;;;;;;;;;5036635;28;20303;-21
2023/06/27 02:27:39;;;;;;;;;;;;;;;;;;5036598;28;19919;-20
2023/06/27 02:30:05;;;;;;;;;;;;;;;;;;5036598;28;19958;-21
2023/06/27 02:32:31;;;;;;;;;;;;;;;;;;5018889;28;19995;-21
2023/06/27 02:34:57;;;;;;;;;;;;;;;;;;5036349;28;19996;-21
2023/06/27 02:37:23;;;;;;;;;;;;;;;;;;5036335;28;20010;-21
2023/06/27 02:39:50;;;;;;;;;;;;;;;;;;5036258;28;19916;-21
2023/06/27 02:42:16;;;;;;;;;;;;;;;;;;5017560;28;19909;-22
2023/06/27 02:44:42;;;;;;;;;;;;;;;;;;5036219;28;19913;-21
2023/06/27 02:47:08;;;;;;;;;;;;;;;;;;5036043;28;19913;-21
2023/06/27 02:49:34;;;;;;;;;;;;;;;;;;5036057;28;19910;-21
2023/06/27 02:52:00;;;;;;;;;;;;;;;;;;5036029;28;20095;-20
2023/06/27 02:54:25;;;;;;;;;;;;;;;;;;5036048;28;19913;-21
2023/06/27 02:56:51;;;;;;;;;;;;;;;;;;5018546;28;20007;-21
2023/06/27 02:59:17;;;;;;;;;;;;;;;;;;5035953;28;19909;-21
2023/06/27 03:01:43;;;;;;;;;;;;;;;;;;5035776;28;19940;-20
2023/06/27 03:04:09;;;;;;;;;;;;;;;;;;5035778;28;19971;-21
2023/06/27 03:06:35;;;;;;;;;;;;;;;;;;5035803;28;19924;-20
2023/06/27 03:09:01;;;;;;;;;;;;;;;;;;5035828;28;19920;-20
2023/06/27 03:11:27;;;;;;;;;;;;;;;;;;5018309;28;19962;-22
2023/06/27 03:13:53;;;;;;;;;;;;;;;;;;5018180;28;19909;-25
2023/06/27 03:16:19;;;;;;;;;;;;;;;;;;5035649;28;20293;-23
2023/06/27 03:18:45;;;;;;;;;;;;;;;;;;5035595;28;20344;-23
2023/06/27 03:21:11;;;;;;;;;;;;;;;;;;5035545;28;19909;-25
2023/06/27 03:23:37;;;;;;;;;;;;;;;;;;5035465;28;19921;-25
2023/06/27 03:26:03;;;;;;;;;;;;;;;;;;5017928;28;19910;-26
2023/06/27 03:28:29;;;;;;;;;;;;;;;;;;5035430;28;20000;-25
2023/06/27 03:30:55;;;;;;;;;;;;;;;;;;5035306;28;19910;-26
2023/06/27 03:33:21;;;;;;;;;;;;;;;;;;5035296;28;19909;-22
2023/06/27 03:35:47;;;;;;;;;;;;;;;;;;5035556;28;19909;-22
2023/06/27 03:38:13;;;;;;;;;;;;;;;;;;5017784;28;19999;-23
2023/06/27 03:40:39;;;;;;;;;;;;;;;;;;5017708;28;20359;-24
2023/06/27 03:43:05;;;;;;;;;;;;;;;;;;5034982;28;19920;-23
2023/06/27 03:45:31;;;;;;;;;;;;;;;;;;5034912;28;19910;-24
2023/06/27 03:47:56;;;;;;;;;;;;;;;;;;5017434;28;19931;-22
2023/06/27 03:50:23;;;;;;;;;;;;;;;;;;5035441;28;20350;-27
2023/06/27 03:52:49;;;;;;;;;;;;;;;;;;5034414;28;20008;-27
2023/06/27 03:55:15;;;;;;;;;;;;;;;;;;5034847;28;20014;-29
2023/06/27 03:57:41;;;;;;;;;;;;;;;;;;5034815;28;19909;-21
2023/06/27 04:00:07;;;;;;;;;;;;;;;;;;5035029;28;20004;-26
2023/06/27 04:02:33;;;;;;;;;;;;;;;;;;5034648;28;19913;-25
2023/06/27 04:04:59;;;;;;;;;;;;;;;;;;5034460;28;19921;-25
2023/06/27 04:07:25;;;;;;;;;;;;;;;;;;5034339;28;19917;-27
2023/06/27 04:09:51;;;;;;;;;;;;;;;;;;5034499;28;19957;-23
2023/06/27 04:12:17;;;;;;;;;;;;;;;;;;5034405;28;20245;-25
2023/06/27 04:14:43;;;;;;;;;;;;;;;;;;5034408;28;19908;-20
2023/06/27 04:17:09;;;;;;;;;;;;;;;;;;5034309;28;19910;-25
2023/06/27 04:19:34;;;;;;;;;;;;;;;;;;5034579;28;19909;-23
2023/06/27 04:22:00;;;;;;;;;;;;;;;;;;5034349;28;20018;-23
2023/06/27 04:24:26;;;;;;;;;;;;;;;;;;5034640;28;19928;-25
2023/06/27 04:26:52;;;;;;;;;;;;;;;;;;5016793;28;19923;-25
2023/06/27 04:29:18;;;;;;;;;;;;;;;;;;5034263;28;20118;-24
2023/06/27 04:31:44;;;;;;;;;;;;;;;;;;5034330;28;19920;-25
2023/06/27 04:34:10;;;;;;;;;;;;;;;;;;5034354;28;19909;-29
2023/06/27 04:36:41;;;;;;;;;;;;;;;;;;5034111;28;19945;-29
2023/06/27 04:39:06;;;;;;;;;;;;;;;;;;5034242;28;19909;-23
2023/06/27 04:41:32;;;;;;;;;;;;;;;;;;5016763;28;19909;-29
2023/06/27 04:43:59;;;;;;;;;;;;;;;;;;5034375;28;19909;-26
2023/06/27 04:46:28;;;;;;;;;;;;;;;;;;5034020;28;20419;-25
2023/06/27 04:48:56;;;;;;;;;;;;;;;;;;5034553;28;19909;-25
2023/06/27 04:51:22;;;;;;;;;;;;;;;;;;5016560;28;19909;-28
2023/06/27 04:53:48;;;;;;;;;;;;;;;;;;5034172;28;19971;-24
2023/06/27 04:56:14;;;;;;;;;;;;;;;;;;5034416;28;19917;-24
2023/06/27 04:58:40;;;;;;;;;;;;;;;;;;5033909;28;19909;-23
2023/06/27 05:01:06;;;;;;;;;;;;;;;;;;5033949;28;19941;-26
2023/06/27 05:03:32;;;;;;;;;;;;;;;;;;5033465;28;20005;-26
2023/06/27 05:05:58;;;;;;;;;;;;;;;;;;5036511;28;20301;-27
2023/06/27 05:08:24;;;;;;;;;;;;;;;;;;5037703;28;19909;-22
2023/06/27 05:10:50;;;;;;;;;;;;;;;;;;5037651;28;19909;-22
2023/06/27 05:13:16;;;;;;;;;;;;;;;;;;5037618;28;19921;-25
2023/06/27 05:15:42;;;;;;;;;;;;;;;;;;5037717;28;19956;-22
2023/06/27 05:18:08;;;;;;;;;;;;;;;;;;5037997;28;19963;-22
2023/06/27 05:20:34;;;;;;;;;;;;;;;;;;5037547;28;20015;-25
2023/06/27 05:23:01;;;;;;;;;;;;;;;;;;5019908;28;19940;-22
2023/06/27 05:25:27;;;;;;;;;;;;;;;;;;5037930;28;19910;-29
2023/06/27 05:27:53;;;;;;;;;;;;;;;;;;5037156;28;20355;-26
2023/06/27 05:30:19;;;;;;;;;;;;;;;;;;5037171;28;20336;-22
2023/06/27 05:32:45;;;;;;;;;;;;;;;;;;5037202;28;20300;-26
2023/06/27 05:35:10;;;;;;;;;;;;;;;;;;5037308;28;19929;-20
2023/06/27 05:37:36;;;;;;;;;;;;;;;;;;5037239;28;19968;-25
2023/06/27 05:40:03;;;;;;;;;;;;;;;;;;5037566;28;19909;-24
2023/06/27 05:42:29;;;;;;;;;;;;;;;;;;5036971;28;20256;-29
2023/06/27 05:44:55;;;;;;;;;;;;;;;;;;5036984;28;20367;-25
2023/06/27 05:47:21;;;;;;;;;;;;;;;;;;5037100;28;19914;-24
2023/06/27 05:49:47;;;;;;;;;;;;;;;;;;5037148;28;19910;-22
2023/06/27 05:52:13;;;;;;;;;;;;;;;;;;5036853;28;19919;-22
2023/06/27 05:54:41;;;;;;;;;;;;;;;;;;5036762;28;19991;-24
2023/06/27 05:57:07;;;;;;;;;;;;;;;;;;5036881;28;19909;-24
2023/06/27 05:59:33;;;;;;;;;;;;;;;;;;5036820;28;19910;-19
2023/06/27 06:01:59;;;;;;;;;;;;;;;;;;5018669;28;19935;-22
2023/06/27 06:04:25;;;;;;;;;;;;;;;;;;5036041;28;19975;-25
2023/06/27 06:06:51;;;;;;;;;;;;;;;;;;5036381;28;19928;-26
2023/06/27 06:09:17;;;;;;;;;;;;;;;;;;5036319;28;19909;-24
2023/06/27 06:11:44;;;;;;;;;;;;;;;;;;5036177;28;19909;-25
2023/06/27 06:14:10;;;;;;;;;;;;;;;;;;5035660;28;19909;-26
2023/06/27 06:16:36;;;;;;;;;;;;;;;;;;5035032;28;19929;-24
2023/06/27 06:19:02;;;;;;;;;;;;;;;;;;5035159;28;19974;-24
2023/06/27 06:21:28;;;;;;;;;;;;;;;;;;5035505;28;19909;-28
2023/06/27 06:23:54;;;;;;;;;;;;;;;;;;5035554;28;19916;-23
2023/06/27 06:26:20;;;;;;;;;;;;;;;;;;5035518;28;19935;-25
2023/06/27 06:28:46;;;;;;;;;;;;;;;;;;5035445;28;19909;-25
2023/06/27 06:31:14;;;;;;;;;;;;;;;;;;5035091;28;19913;-29
2023/06/27 06:33:40;;;;;;;;;;;;;;;;;;5035102;28;20000;-24
2023/06/27 06:36:07;;;;;;;;;;;;;;;;;;5035932;28;19959;-30
2023/06/27 06:38:32;;;;;;;;;;;;;;;;;;5036441;28;19909;-28
2023/06/27 06:40:58;;;;;;;;;;;;;;;;;;5036007;28;20343;-28
2023/06/27 06:43:25;;;;;;;;;;;;;;;;;;5035787;28;20255;-29
2023/06/27 06:45:51;;;;;;;;;;;;;;;;;;5035689;28;20283;-24
2023/06/27 06:48:17;;;;;;;;;;;;;;;;;;5035393;28;19913;-26
2023/06/27 06:50:43;;;;;;;;;;;;;;;;;;5036551;28;19908;-25
2023/06/27 06:53:09;;;;;;;;;;;;;;;;;;5035605;28;20016;-28
2023/06/27 06:55:35;;;;;;;;;;;;;;;;;;5035679;28;19941;-22
2023/06/27 06:58:01;;;;;;;;;;;;;;;;;;5035777;28;20288;-28
2023/06/27 07:00:27;;;;;;;;;;;;;;;;;;5035530;28;20279;-23
2023/06/27 07:02:53;;;;;;;;;;;;;;;;;;5035952;28;20347;-22
2023/06/27 07:05:19;;;;;;;;;;;;;;;;;;5036008;28;19928;-24
2023/06/27 07:07:45;;;;;;;;;;;;;;;;;;5035435;28;20260;-24
2023/06/27 07:10:11;;;;;;;;;;;;;;;;;;5035442;28;19992;-25
2023/06/27 07:12:37;;;;;;;;;;;;;;;;;;5035154;28;19917;-26
2023/06/27 07:15:03;;;;;;;;;;;;;;;;;;5035316;28;19936;-20
2023/06/27 07:17:29;;;;;;;;;;;;;;;;;;5035225;28;20051;-22
2023/06/27 07:19:55;;;;;;;;;;;;;;;;;;5035082;28;19909;-22
2023/06/27 07:22:21;;;;;;;;;;;;;;;;;;5035235;28;19909;-22
2023/06/27 07:24:47;;;;;;;;;;;;;;;;;;5034955;28;19909;-23
2023/06/27 07:27:13;;;;;;;;;;;;;;;;;;5034027;28;19924;-20
2023/06/27 07:29:39;;;;;;;;;;;;;;;;;;5034797;28;20054;-26
2023/06/27 07:32:05;;;;;;;;;;;;;;;;;;5034590;28;20321;-25
2023/06/27 07:34:32;;;;;;;;;;;;;;;;;;5034778;28;20190;-23
2023/06/27 07:36:58;;;;;;;;;;;;;;;;;;5034675;28;19959;-27
2023/06/27 07:39:24;;;;;;;;;;;;;;;;;;5034668;28;19913;-26
2023/06/27 07:41:50;;;;;;;;;;;;;;;;;;5034535;28;20329;-22
2023/06/27 07:44:16;;;;;;;;;;;;;;;;;;5034553;28;19979;-23
2023/06/27 07:46:42;;;;;;;;;;;;;;;;;;5034553;28;19949;-25
2023/06/27 07:49:08;;;;;;;;;;;;;;;;;;5034842;28;19983;-23
2023/06/27 07:51:34;;;;;;;;;;;;;;;;;;5034700;28;20336;-29
2023/06/27 07:54:02;;;;;;;;;;;;;;;;;;5034597;28;19967;-27
2023/06/27 07:56:28;;;;;;;;;;;;;;;;;;5034755;28;19912;-29
2023/06/27 07:58:54;;;;;;;;;;;;;;;;;;5034477;28;19913;-22
2023/06/27 08:01:20;;;;;;;;;;;;;;;;;;5034573;28;20248;-26
2023/06/27 08:03:46;;;;;;;;;;;;;;;;;;5034503;28;19928;-22
2023/06/27 08:06:12;;;;;;;;;;;;;;;;;;5034467;28;19913;-28
2023/06/27 08:08:38;;;;;;;;;;;;;;;;;;5016942;28;20014;-24
2023/06/27 08:11:04;;;;;;;;;;;;;;;;;;5034516;28;19909;-25
2023/06/27 08:13:30;;;;;;;;;;;;;;;;;;5034306;28;19909;-30
2023/06/27 08:15:56;;;;;;;;;;;;;;;;;;5034315;28;19935;-25
2023/06/27 08:18:22;;;;;;;;;;;;;;;;;;5035116;28;19913;-28
2023/06/27 08:20:48;;;;;;;;;;;;;;;;;;5034559;28;19932;-25
2023/06/27 08:23:14;;;;;;;;;;;;;;;;;;5034166;28;20347;-23
2023/06/27 08:25:40;;;;;;;;;;;;;;;;;;5034132;28;20328;-25
2023/06/27 08:28:06;;;;;;;;;;;;;;;;;;5034294;28;20290;-24
2023/06/27 08:30:32;;;;;;;;;;;;;;;;;;5016794;28;19913;-28
2023/06/27 08:32:58;;;;;;;;;;;;;;;;;;5034118;28;20328;-29
2023/06/27 08:35:24;;;;;;;;;;;;;;;;;;5034172;28;19917;-22
2023/06/27 08:37:50;;;;;;;;;;;;;;;;;;5034429;28;20385;-29
2023/06/27 08:40:16;;;;;;;;;;;;;;;;;;5037914;28;19932;-23
2023/06/27 08:42:42;;;;;;;;;;;;;;;;;;5038088;28;19913;-27
2023/06/27 08:45:07;;;;;;;;;;;;;;;;;;5037797;28;19917;-30
2023/06/27 08:47:33;;;;;;;;;;;;;;;;;;5020178;28;19923;-26
2023/06/27 08:49:59;;;;;;;;;;;;;;;;;;5037718;28;20089;-24
2023/06/27 08:52:25;;;;;;;;;;;;;;;;;;5037576;28;19913;-28
2023/06/27 08:54:52;;;;;;;;;;;;;;;;;;5020075;28;19928;-25
2023/06/27 08:57:18;;;;;;;;;;;;;;;;;;5037623;28;19975;-26
2023/06/27 08:59:44;;;;;;;;;;;;;;;;;;5037699;28;19913;-28
2023/06/27 09:02:10;;;;;;;;;;;;;;;;;;5037326;28;20389;-26
2023/06/27 09:04:36;;;;;;;;;;;;;;;;;;5037223;28;19921;-21
2023/06/27 09:07:02;;;;;;;;;;;;;;;;;;5037311;28;19975;-26
2023/06/27 09:09:28;;;;;;;;;;;;;;;;;;5037352;28;19909;-24
2023/06/27 09:11:54;;;;;;;;;;;;;;;;;;5037260;28;19909;-24
2023/06/27 09:14:20;;;;;;;;;;;;;;;;;;5037457;28;20349;-29
2023/06/27 09:16:46;;;;;;;;;;;;;;;;;;5037128;28;19909;-24
2023/06/27 09:19:12;;;;;;;;;;;;;;;;;;5037051;28;19914;-22
2023/06/27 09:21:38;;;;;;;;;;;;;;;;;;5036996;28;19920;-25
2023/06/27 09:24:04;;;;;;;;;;;;;;;;;;5037092;28;19935;-25
2023/06/27 09:26:30;;;;;;;;;;;;;;;;;;5019530;28;20021;-25
2023/06/27 09:28:55;;;;;;;;;;;;;;;;;;5037172;28;19955;-25
2023/06/27 09:31:21;;;;;;;;;;;;;;;;;;5037590;28;19913;-24
2023/06/27 09:33:48;;;;;;;;;;;;;;;;;;5019771;28;20413;-23
2023/06/27 09:36:14;;;;;;;;;;;;;;;;;;5037249;28;19940;-32
2023/06/27 09:38:40;;;;;;;;;;;;;;;;;;5037126;28;19909;-27
2023/06/27 09:41:06;;;;;;;;;;;;;;;;;;5036978;28;19909;-26
2023/06/27 09:43:33;;;;;;;;;;;;;;;;;;5036687;28;19970;-28
2023/06/27 09:45:59;;;;;;;;;;;;;;;;;;5037097;28;19920;-29
2023/06/27 09:48:25;;;;;;;;;;;;;;;;;;5037035;28;19917;-25
2023/06/27 09:50:51;;;;;;;;;;;;;;;;;;5035895;28;19924;-25
2023/06/27 09:53:17;;;;;;;;;;;;;;;;;;5036415;28;19921;-28
2023/06/27 09:55:43;;;;;;;;;;;;;;;;;;5036568;28;19909;-27
2023/06/27 09:58:09;;;;;;;;;;;;;;;;;;5036597;28;20300;-28
2023/06/27 10:00:35;;;;;;;;;;;;;;;;;;5036361;28;19945;-26
2023/06/27 10:03:01;;;;;;;;;;;;;;;;;;5018691;28;19963;-23
2023/06/27 10:05:27;;;;;;;;;;;;;;;;;;5035930;28;19928;-22
2023/06/27 10:07:53;;;;;;;;;;;;;;;;;;5036281;28;19913;-25
2023/06/27 10:10:19;;;;;;;;;;;;;;;;;;5036440;28;19921;-25
2023/06/27 10:12:45;;;;;;;;;;;;;;;;;;5036704;28;20397;-22
2023/06/27 10:15:11;;;;;;;;;;;;;;;;;;5036731;28;19988;-24
2023/06/27 10:17:37;;;;;;;;;;;;;;;;;;5036323;28;20287;-26
2023/06/27 10:20:06;;;;;;;;;;;;;;;;;;5036286;28;19909;-22
2023/06/27 10:22:34;;;;;;;;;;;;;;;;;;5036316;28;19909;-28
2023/06/27 10:25:00;;;;;;;;;;;;;;;;;;5036278;28;19920;-26
2023/06/27 10:27:26;;;;;;;;;;;;;;;;;;5036243;28;19913;-22
2023/06/27 10:29:52;;;;;;;;;;;;;;;;;;5036340;28;19913;-27
2023/06/27 10:32:18;;;;;;;;;;;;;;;;;;5036191;28;19909;-27
2023/06/27 10:34:44;;;;;;;;;;;;;;;;;;5036080;28;20010;-22
2023/06/27 10:37:14;;;;;;;;;;;;;;;;;;5036278;28;19952;-26
2023/06/27 10:39:41;;;;;;;;;;;;;;;;;;5035909;28;19909;-26
2023/06/27 10:42:07;;;;;;;;;;;;;;;;;;5035766;28;19913;-27
2023/06/27 10:44:33;;;;;;;;;;;;;;;;;;5035851;28;19909;-28
2023/06/27 10:46:59;;;;;;;;;;;;;;;;;;5035939;28;19923;-24
2023/06/27 10:49:25;;;;;;;;;;;;;;;;;;5035861;28;20012;-24
2023/06/27 10:51:51;;;;;;;;;;;;;;;;;;5035642;28;19917;-30
2023/06/27 10:54:17;;;;;;;;;;;;;;;;;;5018105;28;20360;-24
2023/06/27 10:56:43;;;;;;;;;;;;;;;;;;5035658;28;19928;-25
2023/06/27 10:59:09;;;;;;;;;;;;;;;;;;5035163;28;19909;-24
2023/06/27 11:01:35;;;;;;;;;;;;;;;;;;5034796;28;19909;-28
2023/06/27 11:04:01;;;;;;;;;;;;;;;;;;5034188;28;20349;-23
2023/06/27 11:06:27;;;;;;;;;;;;;;;;;;5034852;28;19920;-29
2023/06/27 11:08:53;;;;;;;;;;;;;;;;;;5035055;28;19909;-24
2023/06/27 11:11:19;;;;;;;;;;;;;;;;;;5034960;28;19909;-25
2023/06/27 11:13:45;;;;;;;;;;;;;;;;;;5034872;28;20304;-26
2023/06/27 11:16:12;;;;;;;;;;;;;;;;;;5035158;28;20256;-26
2023/06/27 11:18:38;;;;;;;;;;;;;;;;;;5035573;28;19940;-25
2023/06/27 11:21:04;;;;;;;;;;;;;;;;;;5034829;28;19913;-26
2023/06/27 11:23:38;;;;;;;;;;;;;;;;;;5072326;28;19988;-26
2023/06/27 11:26:04;;;;;;;;;;;;;;;;;;5071861;28;20012;-30
2023/06/27 11:28:30;;;;;;;;;;;;;;;;;;5071920;28;19913;-24
2023/06/27 11:30:55;;;;;;;;;;;;;;;;;;5071597;28;19946;-25
2023/06/27 11:33:23;;;;;;;;;;;;;;;;;;5071591;28;19948;-23
2023/06/27 11:35:49;;;;;;;;;;;;;;;;;;5071442;28;19920;-24
2023/06/27 11:38:15;;;;;;;;;;;;;;;;;;5071530;28;19909;-22
2023/06/27 11:40:41;;;;;;;;;;;;;;;;;;5071302;28;19977;-26
2023/06/27 11:43:07;;;;;;;;;;;;;;;;;;5071260;28;19912;-27
2023/06/27 11:45:33;;;;;;;;;;;;;;;;;;5071213;28;19916;-23
2023/06/27 11:47:59;;;;;;;;;;;;;;;;;;5071129;28;20001;-26
2023/06/27 11:50:25;;;;;;;;;;;;;;;;;;5071063;28;19908;-29
2023/06/27 11:52:51;;;;;;;;;;;;;;;;;;5071084;28;19990;-27
2023/06/27 11:55:17;;;;;;;;;;;;;;;;;;5071186;28;20007;-30
2023/06/27 11:57:43;;;;;;;;;;;;;;;;;;5071081;28;19915;-24
2023/06/27 12:00:09;;;;;;;;;;;;;;;;;;5071037;28;19952;-24
2023/06/27 12:02:35;;;;;;;;;;;;;;;;;;5070908;28;19952;-24
2023/06/27 12:05:01;;;;;;;;;;;;;;;;;;5069899;28;20315;-32
2023/06/27 12:07:27;;;;;;;;;;;;;;;;;;5071128;28;20299;-25
2023/06/27 12:09:53;;;;;;;;;;;;;;;;;;5070819;28;19999;-26
2023/06/27 12:12:19;;;;;;;;;;;;;;;;;;5070633;28;19940;-23
2023/06/27 12:14:45;;;;;;;;;;;;;;;;;;5069501;28;19919;-25
2023/06/27 12:17:11;;;;;;;;;;;;;;;;;;5070447;28;19908;-24
2023/06/27 12:19:37;;;;;;;;;;;;;;;;;;5070383;28;19948;-22
2023/06/27 12:22:03;;;;;;;;;;;;;;;;;;5077452;28;19920;-27
2023/06/27 12:24:29;;;;;;;;;;;;;;;;;;5090599;28;19908;-26
2023/06/27 12:26:55;;;;;;;;;;;;;;;;;;5090771;28;19908;-27
2023/06/27 12:29:21;;;;;;;;;;;;;;;;;;5091015;28;19908;-28
2023/06/27 12:31:47;;;;;;;;;;;;;;;;;;5090610;28;19947;-26
2023/06/27 12:34:13;;;;;;;;;;;;;;;;;;5081689;28;19916;-23
2023/06/27 12:36:39;;;;;;;;;;;;;;;;;;5077157;28;19909;-27
2023/06/27 12:39:05;;;;;;;;;;;;;;;;;;5077090;28;20339;-26
2023/06/27 12:41:31;;;;;;;;;;;;;;;;;;5077439;28;19974;-22
2023/06/27 12:43:57;;;;;;;;;;;;;;;;;;5077185;28;19995;-23
2023/06/27 12:46:23;;;;;;;;;;;;;;;;;;5076750;28;19974;-21
2023/06/27 12:48:49;;;;;;;;;;;;;;;;;;5059001;28;19913;-23
2023/06/27 12:51:15;;;;;;;;;;;;;;;;;;5076441;28;20285;-22
2023/06/27 12:53:41;;;;;;;;;;;;;;;;;;5076657;28;19908;-25
2023/06/27 12:56:07;;;;;;;;;;;;;;;;;;5059034;28;20263;-24
2023/06/27 12:58:33;;;;;;;;;;;;;;;;;;5076467;28;20356;-25
2023/06/27 13:01:00;;;;;;;;;;;;;;;;;;5076482;28;19987;-26
2023/06/27 13:03:26;;;;;;;;;;;;;;;;;;5076477;28;20263;-25
2023/06/27 13:05:52;;;;;;;;;;;;;;;;;;5076942;28;19908;-22
2023/06/27 13:08:18;;;;;;;;;;;;;;;;;;5076637;28;19909;-26
2023/06/27 13:10:44;;;;;;;;;;;;;;;;;;5076497;28;20015;-22
2023/06/27 13:13:10;;;;;;;;;;;;;;;;;;5076266;28;19912;-24
2023/06/27 13:15:36;;;;;;;;;;;;;;;;;;5076401;28;20003;-29
2023/06/27 13:18:02;;;;;;;;;;;;;;;;;;5076601;28;19934;-21
2023/06/27 13:20:28;;;;;;;;;;;;;;;;;;5076313;28;19912;-25
2023/06/27 13:22:55;;;;;;;;;;;;;;;;;;5076028;28;19978;-25
2023/06/27 13:25:22;;;;;;;;;;;;;;;;;;5076558;28;20261;-27
2023/06/27 13:27:48;;;;;;;;;;;;;;;;;;5076591;28;19909;-23
2023/06/27 13:30:14;;;;;;;;;;;;;;;;;;5076056;28;19920;-22
2023/06/27 13:32:40;;;;;;;;;;;;;;;;;;5076089;28;19965;-26
2023/06/27 13:35:06;;;;;;;;;;;;;;;;;;5075963;28;19916;-25
2023/06/27 13:37:32;;;;;;;;;;;;;;;;;;5076183;28;19908;-24
2023/06/27 13:39:58;;;;;;;;;;;;;;;;;;5076030;28;19909;-26
2023/06/27 13:42:24;;;;;;;;;;;;;;;;;;5075391;28;19916;-22
2023/06/27 13:44:50;;;;;;;;;;;;;;;;;;5075285;28;19943;-24
2023/06/27 13:47:16;;;;;;;;;;;;;;;;;;5075695;28;19909;-25
2023/06/27 13:49:42;;;;;;;;;;;;;;;;;;5076055;28;19969;-32
2023/06/27 13:52:08;;;;;;;;;;;;;;;;;;5075844;28;19920;-26
2023/06/27 13:54:34;;;;;;;;;;;;;;;;;;5075612;28;19988;-24
2023/06/27 13:57:00;;;;;;;;;;;;;;;;;;5075733;28;19912;-22
2023/06/27 13:59:27;;;;;;;;;;;;;;;;;;5075529;28;19999;-26
2023/06/27 14:01:53;;;;;;;;;;;;;;;;;;5075394;28;19912;-22
2023/06/27 14:04:19;;;;;;;;;;;;;;;;;;5058052;28;19908;-23
2023/06/27 14:06:51;;;;;;;;;;;;;;;;;;5075573;28;19912;-25
2023/06/27 14:09:17;;;;;;;;;;;;;;;;;;5075380;28;19941;-27
2023/06/27 14:11:43;;;;;;;;;;;;;;;;;;5075200;28;19930;-22
2023/06/27 14:14:09;;;;;;;;;;;;;;;;;;5075433;28;19908;-24
2023/06/27 14:16:35;;;;;;;;;;;;;;;;;;5075085;28;19905;-23
2023/06/27 14:19:01;;;;;;;;;;;;;;;;;;5074811;28;19909;-26
2023/06/27 14:21:27;;;;;;;;;;;;;;;;;;5074804;28;19923;-23
2023/06/27 14:23:55;;;;;;;;;;;;;;;;;;5075156;28;19953;-25
2023/06/27 14:26:21;;;;;;;;;;;;;;;;;;5075052;28;20303;-22
2023/06/27 14:28:47;;;;;;;;;;;;;;;;;;5075288;28;19916;-23
2023/06/27 14:31:13;;;;;;;;;;;;;;;;;;5075256;28;19908;-24
2023/06/27 14:33:39;;;;;;;;;;;;;;;;;;5074874;28;19967;-23
2023/06/27 14:36:05;;;;;;;;;;;;;;;;;;5074959;28;19961;-28
2023/06/27 14:38:31;;;;;;;;;;;;;;;;;;5075303;28;19908;-27
2023/06/27 14:40:58;;;;;;;;;;;;;;;;;;5074992;28;19938;-25
2023/06/27 14:43:24;;;;;;;;;;;;;;;;;;5056985;28;20343;-26
2023/06/27 14:45:50;;;;;;;;;;;;;;;;;;5074989;28;19923;-22
2023/06/27 14:48:15;;;;;;;;;;;;;;;;;;5074659;28;20345;-28
2023/06/27 14:50:41;;;;;;;;;;;;;;;;;;5074647;28;19919;-22
2023/06/27 14:53:07;;;;;;;;;;;;;;;;;;5074572;28;19908;-28
2023/06/27 14:55:33;;;;;;;;;;;;;;;;;;5074592;28;20232;-25
2023/06/27 14:58:00;;;;;;;;;;;;;;;;;;5074141;28;19913;-24
2023/06/27 15:00:26;;;;;;;;;;;;;;;;;;5074526;28;19912;-24
2023/06/27 15:02:52;;;;;;;;;;;;;;;;;;5074365;28;20260;-27
2023/06/27 15:05:18;;;;;;;;;;;;;;;;;;5074515;28;20003;-24
2023/06/27 15:07:44;;;;;;;;;;;;;;;;;;5074818;28;19909;-25
2023/06/27 15:10:10;;;;;;;;;;;;;;;;;;5074530;28;20328;-24
2023/06/27 15:12:36;;;;;;;;;;;;;;;;;;5074298;28;19908;-27
2023/06/27 15:15:01;;;;;;;;;;;;;;;;;;5074385;28;20308;-26
2023/06/27 15:17:27;;;;;;;;;;;;;;;;;;5073914;28;20031;-26
2023/06/27 15:19:53;;;;;;;;;;;;;;;;;;5073810;28;19908;-25
2023/06/27 15:22:22;;;;;;;;;;;;;;;;;;5073347;28;19924;-27
2023/06/27 15:24:50;;;;;;;;;;;;;;;;;;5073541;28;19908;-27
2023/06/27 15:27:16;;;;;;;;;;;;;;;;;;5055818;28;20001;-25
2023/06/27 15:29:42;;;;;;;;;;;;;;;;;;5073659;28;19944;-27
2023/06/27 15:32:09;;;;;;;;;;;;;;;;;;5073484;28;19999;-25
2023/06/27 15:34:35;;;;;;;;;;;;;;;;;;5073702;28;19908;-29
2023/06/27 15:37:01;;;;;;;;;;;;;;;;;;5073539;28;20197;-27
2023/06/27 15:39:27;;;;;;;;;;;;;;;;;;5074168;28;20332;-27
2023/06/27 15:41:55;;;;;;;;;;;;;;;;;;5073956;28;20377;-29
2023/06/27 15:44:21;;;;;;;;;;;;;;;;;;5074470;28;19908;-29
2023/06/27 15:46:47;;;;;;;;;;;;;;;;;;5074170;28;20243;-30
2023/06/27 15:49:13;;;;;;;;;;;;;;;;;;5074298;28;19915;-23
2023/06/27 15:51:40;;;;;;;;;;;;;;;;;;5074148;28;19909;-24
2023/06/27 15:54:06;;;;;;;;;;;;;;;;;;5074847;28;20195;-28
2023/06/27 15:56:31;;;;;;;;;;;;;;;;;;5074201;28;19904;-28
2023/06/27 15:58:57;;;;;;;;;;;;;;;;;;5074092;28;19931;-26
2023/06/27 16:01:23;;;;;;;;;;;;;;;;;;5074212;28;20016;-28
2023/06/27 16:03:49;;;;;;;;;;;;;;;;;;5073861;28;19913;-25
2023/06/27 16:06:15;;;;;;;;;;;;;;;;;;5073775;28;19915;-25
2023/06/27 16:08:41;;;;;;;;;;;;;;;;;;5074858;28;19908;-29
2023/06/27 16:11:07;;;;;;;;;;;;;;;;;;5077554;28;19908;-30
2023/06/27 16:13:33;;;;;;;;;;;;;;;;;;5077329;28;19924;-28
2023/06/27 16:15:59;;;;;;;;;;;;;;;;;;5059546;28;19908;-25
2023/06/27 16:18:25;;;;;;;;;;;;;;;;;;5077490;28;19966;-26
2023/06/27 16:20:51;;;;;;;;;;;;;;;;;;5077648;28;19920;-25
2023/06/27 16:23:17;;;;;;;;;;;;;;;;;;5076888;28;19920;-23
2023/06/27 16:25:43;;;;;;;;;;;;;;;;;;5077110;28;20237;-28
2023/06/27 16:28:09;;;;;;;;;;;;;;;;;;5077385;28;19913;-23
2023/06/27 16:30:37;;;;;;;;;;;;;;;;;;5059609;28;20262;-25
2023/06/27 16:33:03;;;;;;;;;;;;;;;;;;5077079;28;19909;-27
2023/06/27 16:35:29;;;;;;;;;;;;;;;;;;5077528;28;19923;-25
2023/06/27 16:37:55;;;;;;;;;;;;;;;;;;5077080;28;19980;-27